Time;durP1;ratioP1;P1;durP2;ratioP2;P2;SDS_P1;SDS_P2;PMS_P1;PMS_P2;Temp;Humidity;BMP_temperature;BMP_pressure;BME280_temperature;BME280_humidity;BME280_pressure;Samples;Min_cycle;Max_cycle;Signal;HPM_P1;HPM_P2
2024/03/31 00:01:10;;;;;;;1.67;1.55;;;10.20;84.90;;;;;;5023746;28;20029;-65
2024/03/31 00:03:35;;;;;;;1.83;1.50;;;10.30;84.90;;;;;;5030453;28;20034;-65
2024/03/31 00:06:01;;;;;;;2.95;1.50;;;10.30;84.70;;;;;;5029255;28;20053;-66
2024/03/31 00:08:27;;;;;;;1.67;1.50;;;10.30;84.70;;;;;;5023025;28;20029;-65
2024/03/31 00:11:00;;;;;;;2.13;1.60;;;10.40;84.70;;;;;;5055275;28;20021;-65
2024/03/31 00:13:27;;;;;;;2.92;1.90;;;10.50;84.70;;;;;;5030350;28;20036;-65
2024/03/31 00:15:53;;;;;;;3.05;2.28;;;10.50;84.60;;;;;;5029118;28;20052;-65
2024/03/31 00:18:18;;;;;;;4.30;2.53;;;10.50;84.60;;;;;;5028787;28;20504;-65
2024/03/31 00:20:44;;;;;;;3.13;2.30;;;10.50;84.60;;;;;;5027360;28;20084;-65
2024/03/31 00:23:09;;;;;;;3.00;2.20;;;10.40;84.70;;;;;;5029187;28;20057;-66
2024/03/31 00:25:35;;;;;;;3.72;2.50;;;10.40;84.80;;;;;;5029466;28;20515;-66
2024/03/31 00:28:00;;;;;;;5.13;3.17;;;10.40;84.90;;;;;;5028901;28;20526;-66
2024/03/31 00:30:26;;;;;;;4.80;3.15;;;10.40;84.90;;;;;;5029038;28;20029;-66
2024/03/31 00:32:51;;;;;;;4.70;3.10;;;10.40;85.00;;;;;;5028535;28;20022;-66
2024/03/31 00:35:17;;;;;;;6.18;3.83;;;10.40;85.00;;;;;;5031776;28;20139;-66
2024/03/31 00:37:42;;;;;;;5.32;3.42;;;10.30;85.20;;;;;;5026945;28;20034;-66
2024/03/31 00:40:08;;;;;;;4.82;3.30;;;10.30;85.30;;;;;;5027651;28;20492;-66
2024/03/31 00:42:34;;;;;;;4.72;3.33;;;10.30;85.50;;;;;;5024957;28;20052;-66
2024/03/31 00:44:59;;;;;;;4.38;2.70;;;10.30;85.50;;;;;;5028084;28;20121;-66
2024/03/31 00:47:25;;;;;;;3.75;2.90;;;10.20;85.50;;;;;;5029149;28;20167;-65
2024/03/31 00:49:50;;;;;;;4.63;2.83;;;10.20;85.50;;;;;;5030904;28;20075;-66
2024/03/31 00:52:16;;;;;;;4.30;2.90;;;10.20;85.60;;;;;;5037823;28;20029;-65
2024/03/31 00:54:42;;;;;;;5.63;3.00;;;10.20;85.60;;;;;;5048133;28;20025;-65
2024/03/31 00:57:08;;;;;;;3.85;2.72;;;10.10;85.70;;;;;;5026674;28;20247;-65
2024/03/31 00:59:34;;;;;;;4.78;3.15;;;10.10;85.90;;;;;;5039045;28;20151;-66
2024/03/31 01:01:59;;;;;;;5.72;3.45;;;10.10;85.80;;;;;;5029134;28;20238;-65
2024/03/31 01:04:25;;;;;;;3.75;2.47;;;10.10;85.90;;;;;;5036371;28;20072;-65
2024/03/31 01:06:50;;;;;;;5.35;3.25;;;10.10;86.00;;;;;;5042558;28;20026;-65
2024/03/31 01:09:16;;;;;;;5.75;3.63;;;10.10;86.10;;;;;;5029614;28;20044;-65
2024/03/31 01:11:42;;;;;;;4.38;2.80;;;10.10;86.00;;;;;;5032592;28;20029;-65
2024/03/31 01:14:08;;;;;;;4.72;2.95;;;10.10;86.00;;;;;;5032605;28;20388;-66
2024/03/31 01:16:33;;;;;;;6.95;4.43;;;10.20;86.10;;;;;;5031759;28;20096;-65
2024/03/31 01:18:59;;;;;;;7.00;4.20;;;10.10;86.50;;;;;;5022334;28;20032;-65
2024/03/31 01:21:27;;;;;;;6.15;3.70;;;10.10;86.60;;;;;;5036566;28;20532;-65
2024/03/31 01:23:55;;;;;;;5.15;3.45;;;10.10;86.70;;;;;;5028420;28;20040;-65
2024/03/31 01:26:20;;;;;;;6.25;3.67;;;10.00;86.80;;;;;;5029695;28;20025;-65
2024/03/31 01:28:46;;;;;;;4.85;3.03;;;10.10;86.90;;;;;;5031971;28;20084;-65
2024/03/31 01:31:11;;;;;;;5.32;3.25;;;10.10;86.80;;;;;;5034792;28;20017;-65
2024/03/31 01:33:37;;;;;;;5.30;3.05;;;10.10;86.90;;;;;;5032998;28;20107;-65
2024/03/31 01:36:03;;;;;;;5.32;3.45;;;10.10;86.80;;;;;;5020429;28;20526;-65
2024/03/31 01:38:29;;;;;;;5.70;3.70;;;10.10;86.70;;;;;;5032122;28;20120;-65
2024/03/31 01:40:54;;;;;;;4.43;2.80;;;10.10;86.80;;;;;;5038567;28;20021;-65
2024/03/31 01:43:21;;;;;;;5.10;3.20;;;10.10;86.80;;;;;;5035719;28;20024;-65
2024/03/31 01:45:47;;;;;;;4.70;3.03;;;10.20;86.80;;;;;;5036464;28;20026;-65
2024/03/31 01:48:12;;;;;;;4.38;2.70;;;10.20;86.60;;;;;;5032389;28;20017;-65
2024/03/31 01:50:38;;;;;;;4.57;2.92;;;10.20;86.60;;;;;;5032865;28;20108;-65
2024/03/31 01:53:03;;;;;;;3.65;2.40;;;10.20;86.50;;;;;;5017111;28;20053;-65
2024/03/31 01:55:29;;;;;;;4.72;3.00;;;10.10;86.50;;;;;;5037734;28;20033;-66
2024/03/31 01:57:55;;;;;;;3.90;2.53;;;10.10;86.60;;;;;;5040295;28;20100;-66
2024/03/31 02:00:20;;;;;;;3.70;2.38;;;10.10;87.20;;;;;;5032928;28;20037;-66
2024/03/31 02:02:47;;;;;;;3.80;2.50;;;10.10;86.70;;;;;;5039228;28;20026;-66
2024/03/31 02:05:12;;;;;;;3.67;2.30;;;10.10;86.70;;;;;;5035294;28;20452;-65
2024/03/31 02:07:38;;;;;;;3.10;2.22;;;10.10;86.70;;;;;;5040131;28;20082;-66
2024/03/31 02:10:04;;;;;;;4.40;2.67;;;10.10;86.80;;;;;;5028636;28;20021;-65
2024/03/31 02:12:30;;;;;;;3.67;2.53;;;10.10;86.80;;;;;;5027330;28;20087;-66
2024/03/31 02:14:55;;;;;;;4.35;2.67;;;10.10;86.90;;;;;;5032300;28;20399;-66
2024/03/31 02:17:21;;;;;;;4.40;2.30;;;10.00;86.90;;;;;;5033372;28;20377;-65
2024/03/31 02:19:47;;;;;;;4.45;2.47;;;10.00;87.00;;;;;;5034016;28;20439;-66
2024/03/31 02:22:16;;;;;;;3.25;2.30;;;10.00;87.00;;;;;;5037747;28;20400;-66
2024/03/31 02:24:42;;;;;;;3.85;2.58;;;10.00;87.00;;;;;;5036994;28;20484;-65
2024/03/31 02:27:07;;;;;;;4.65;2.55;;;10.00;87.00;;;;;;5030005;28;20040;-66
2024/03/31 02:29:33;;;;;;;3.97;2.75;;;10.00;87.10;;;;;;5030453;28;20404;-65
2024/03/31 02:31:59;;;;;;;4.30;2.42;;;9.80;87.50;;;;;;5039080;28;20282;-65
2024/03/31 02:34:24;;;;;;;3.40;2.33;;;9.80;87.60;;;;;;5038217;28;20030;-65
2024/03/31 02:36:50;;;;;;;2.65;2.03;;;9.90;87.70;;;;;;5033478;28;20106;-65
2024/03/31 02:39:15;;;;;;;2.55;2.03;;;9.90;87.70;;;;;;5032593;28;20378;-65
2024/03/31 02:41:41;;;;;;;3.42;2.00;;;9.80;87.70;;;;;;5037228;28;20037;-66
2024/03/31 02:44:07;;;;;;;3.00;2.13;;;9.90;87.60;;;;;;5035194;28;20029;-65
2024/03/31 02:46:32;;;;;;;2.65;1.90;;;9.80;87.80;;;;;;5024768;28;20033;-64
2024/03/31 02:48:58;;;;;;;3.50;2.35;;;9.70;87.90;;;;;;5031186;28;20029;-65
2024/03/31 02:51:23;;;;;;;4.88;3.10;;;9.70;88.20;;;;;;5033712;28;20111;-65
2024/03/31 02:53:49;;;;;;;4.05;2.80;;;9.60;88.40;;;;;;5045109;28;20096;-64
2024/03/31 02:56:14;;;;;;;5.18;2.97;;;9.60;88.60;;;;;;5040540;28;20051;-64
2024/03/31 02:58:40;;;;;;;3.67;2.83;;;9.60;88.70;;;;;;5035151;28;20037;-64
2024/03/31 03:01:06;;;;;;;4.93;3.17;;;9.60;88.80;;;;;;5035809;28;20033;-64
2024/03/31 03:03:32;;;;;;;4.05;2.78;;;9.50;88.90;;;;;;5040332;28;20051;-64
2024/03/31 03:05:58;;;;;;;3.42;2.38;;;9.60;88.90;;;;;;5029631;28;20091;-64
2024/03/31 03:08:23;;;;;;;2.83;2.15;;;9.60;88.80;;;;;;5018190;28;20523;-64
2024/03/31 03:10:53;;;;;;;3.53;2.72;;;9.60;89.00;;;;;;5037754;28;20483;-65
2024/03/31 03:13:19;;;;;;;2.80;2.03;;;9.60;89.10;;;;;;5041578;28;20028;-64
2024/03/31 03:15:44;;;;;;;2.83;2.00;;;9.50;89.10;;;;;;5031727;28;20029;-65
2024/03/31 03:18:13;;;;;;;2.85;2.10;;;9.50;89.10;;;;;;5029718;28;20396;-65
2024/03/31 03:20:39;;;;;;;2.60;1.88;;;9.60;89.10;;;;;;5035064;28;20403;-65
2024/03/31 03:23:05;;;;;;;2.55;2.00;;;9.60;88.90;;;;;;5030707;28;20025;-65
2024/03/31 03:25:30;;;;;;;2.15;1.60;;;9.70;88.80;;;;;;5023500;28;20430;-65
2024/03/31 03:27:56;;;;;;;2.05;1.60;;;9.70;88.60;;;;;;5032090;28;20071;-65
2024/03/31 03:30:21;;;;;;;2.40;1.85;;;9.70;88.40;;;;;;5035404;28;20429;-66
2024/03/31 03:32:47;;;;;;;3.05;2.10;;;9.70;88.50;;;;;;5035481;28;20400;-65
2024/03/31 03:35:13;;;;;;;3.08;2.17;;;9.70;88.60;;;;;;5035079;28;20395;-65
2024/03/31 03:37:38;;;;;;;2.70;2.00;;;9.70;88.60;;;;;;5028964;28;20037;-65
2024/03/31 03:40:05;;;;;;;2.90;2.20;;;9.70;88.60;;;;;;5038763;28;20021;-65
2024/03/31 03:42:30;;;;;;;2.70;1.95;;;9.60;88.70;;;;;;5033380;28;20033;-65
2024/03/31 03:44:56;;;;;;;3.95;2.92;;;9.70;88.70;;;;;;5023886;28;20018;-66
2024/03/31 03:47:21;;;;;;;3.85;2.70;;;9.60;88.70;;;;;;5031902;28;20027;-63
2024/03/31 03:49:49;;;;;;;3.88;2.70;;;9.50;89.10;;;;;;5043300;28;20026;-66
2024/03/31 03:52:14;;;;;;;3.20;2.25;;;9.40;89.40;;;;;;5036405;28;20017;-65
2024/03/31 03:54:40;;;;;;;2.72;2.08;;;9.30;89.60;;;;;;5039538;28;20036;-65
2024/03/31 03:57:05;;;;;;;4.10;2.33;;;9.40;89.60;;;;;;5043802;28;21329;-66
2024/03/31 03:59:31;;;;;;;4.05;2.80;;;9.40;89.70;;;;;;5028616;28;20294;-66
2024/03/31 04:01:56;;;;;;;3.22;2.30;;;9.30;89.80;;;;;;5030150;28;20022;-65
2024/03/31 04:04:22;;;;;;;2.40;2.00;;;9.30;89.80;;;;;;5034875;28;20033;-64
2024/03/31 04:06:47;;;;;;;2.70;2.08;;;9.40;89.80;;;;;;5037120;28;20018;-65
2024/03/31 04:09:13;;;;;;;3.45;2.47;;;9.30;90.00;;;;;;5033195;28;20572;-65
2024/03/31 04:11:38;;;;;;;3.78;2.83;;;9.20;90.00;;;;;;5041514;28;20067;-66
2024/03/31 04:14:04;;;;;;;3.83;2.83;;;9.20;90.30;;;;;;5029486;28;20029;-66
2024/03/31 04:16:29;;;;;;;4.53;3.20;;;9.20;90.40;;;;;;5034582;28;20033;-65
2024/03/31 04:18:55;;;;;;;5.03;3.55;;;9.10;90.50;;;;;;5032509;28;20083;-64
2024/03/31 04:21:20;;;;;;;4.93;3.45;;;9.10;90.60;;;;;;5029774;28;20276;-65
2024/03/31 04:23:46;;;;;;;5.60;3.80;;;9.10;90.60;;;;;;5027913;28;20059;-65
2024/03/31 04:26:11;;;;;;;4.32;3.45;;;9.10;90.90;;;;;;5035673;28;20413;-65
2024/03/31 04:28:37;;;;;;;5.68;4.15;;;9.10;91.10;;;;;;5030019;28;20022;-65
2024/03/31 04:31:03;;;;;;;4.68;3.50;;;9.10;91.00;;;;;;5028290;28;20013;-64
2024/03/31 04:33:32;;;;;;;5.38;3.55;;;9.20;90.90;;;;;;5042024;28;20055;-65
2024/03/31 04:35:58;;;;;;;4.55;3.45;;;9.20;90.90;;;;;;5037199;28;20095;-66
2024/03/31 04:38:23;;;;;;;4.63;3.10;;;9.20;90.90;;;;;;5038137;28;20025;-64
2024/03/31 04:40:56;;;;;;;3.85;2.90;;;9.30;90.80;;;;;;5034359;28;20078;-65
2024/03/31 04:43:24;;;;;;;4.38;3.35;;;9.30;90.90;;;;;;5045213;28;20511;-66
2024/03/31 04:45:59;;;;;;;4.43;3.13;;;9.30;90.90;;;;;;5032326;28;20024;-66
2024/03/31 04:48:24;;;;;;;5.40;3.97;;;9.30;90.90;;;;;;5030814;28;20033;-66
2024/03/31 04:50:50;;;;;;;6.15;3.70;;;9.30;91.00;;;;;;5037901;28;20503;-66
2024/03/31 04:53:15;;;;;;;5.53;3.90;;;9.30;91.30;;;;;;5032714;28;20404;-65
2024/03/31 04:55:41;;;;;;;4.93;3.67;;;9.20;91.20;;;;;;5024774;28;20107;-65
2024/03/31 04:58:06;;;;;;;4.60;3.67;;;9.30;91.30;;;;;;5026092;28;20494;-67
2024/03/31 05:00:32;;;;;;;5.38;3.40;;;9.30;91.20;;;;;;5037137;28;20485;-65
2024/03/31 05:02:57;;;;;;;5.07;3.83;;;9.30;91.20;;;;;;5037659;28;20023;-66
2024/03/31 05:05:23;;;;;;;5.93;4.13;;;9.30;91.40;;;;;;5041119;28;20364;-65
2024/03/31 05:07:48;;;;;;;5.00;3.53;;;9.30;91.30;;;;;;5031336;28;20068;-65
2024/03/31 05:10:14;;;;;;;5.63;3.70;;;9.30;91.20;;;;;;5035066;28;20025;-65
2024/03/31 05:12:39;;;;;;;5.10;3.40;;;9.30;91.30;;;;;;5025643;28;20041;-65
2024/03/31 05:15:05;;;;;;;4.18;3.03;;;9.40;91.30;;;;;;5021728;28;20033;-65
2024/03/31 05:17:31;;;;;;;3.55;2.97;;;9.40;91.20;;;;;;5035388;28;20030;-65
2024/03/31 05:19:56;;;;;;;4.93;3.40;;;9.40;91.20;;;;;;5041252;28;20166;-66
2024/03/31 05:22:22;;;;;;;4.32;3.05;;;9.40;91.30;;;;;;5037780;28;20017;-65
2024/03/31 05:24:47;;;;;;;4.90;3.53;;;9.40;91.20;;;;;;5033273;28;20021;-65
2024/03/31 05:27:13;;;;;;;5.57;3.88;;;9.40;91.40;;;;;;5034746;28;20392;-65
2024/03/31 05:29:39;;;;;;;5.43;3.83;;;9.40;91.40;;;;;;5030274;28;20040;-65
2024/03/31 05:32:05;;;;;;;4.22;2.90;;;9.40;91.50;;;;;;5022445;28;20026;-65
2024/03/31 05:34:30;;;;;;;7.70;5.28;;;9.40;91.50;;;;;;5030856;28;20045;-64
2024/03/31 05:36:56;;;;;;;7.25;5.03;;;9.40;91.80;;;;;;5035083;28;20033;-65
2024/03/31 05:39:21;;;;;;;8.13;5.65;;;9.40;91.90;;;;;;5043118;28;20036;-64
2024/03/31 05:41:47;;;;;;;8.25;5.75;;;9.40;92.10;;;;;;5035019;28;20025;-65
2024/03/31 05:44:12;;;;;;;9.18;6.90;;;9.30;92.10;;;;;;5033830;28;20060;-65
2024/03/31 05:46:38;;;;;;;8.10;6.05;;;9.30;92.50;;;;;;5030504;28;20029;-66
2024/03/31 05:49:03;;;;;;;7.85;5.75;;;9.30;92.70;;;;;;5025516;28;20404;-65
2024/03/31 05:51:30;;;;;;;9.57;6.63;;;9.30;92.60;;;;;;5025904;28;20504;-66
2024/03/31 05:53:56;;;;;;;7.07;5.10;;;9.30;92.80;;;;;;5027824;28;20025;-65
2024/03/31 05:56:21;;;;;;;10.48;7.05;;;9.40;92.80;;;;;;5031745;28;20025;-65
2024/03/31 05:58:47;;;;;;;6.45;4.85;;;9.40;92.80;;;;;;5036114;28;20025;-64
2024/03/31 06:01:12;;;;;;;7.68;5.40;;;9.40;92.80;;;;;;5046719;28;20021;-65
2024/03/31 06:03:38;;;;;;;7.68;5.68;;;9.50;92.70;;;;;;5034767;28;20284;-65
2024/03/31 06:06:03;;;;;;;12.02;8.05;;;9.50;92.90;;;;;;5030930;28;20081;-64
2024/03/31 06:08:29;;;;;;;10.13;6.80;;;9.50;93.00;;;;;;5040533;28;20053;-64
2024/03/31 06:10:56;;;;;;;7.70;5.40;;;9.50;93.00;;;;;;5038575;28;20030;-65
2024/03/31 06:13:22;;;;;;;9.65;5.93;;;9.60;92.90;;;;;;5033905;28;20117;-64
2024/03/31 06:15:47;;;;;;;9.27;6.50;;;9.60;93.00;;;;;;5040251;28;20104;-63
2024/03/31 06:18:13;;;;;;;9.52;6.30;;;9.60;93.50;;;;;;5027206;28;20060;-64
2024/03/31 06:20:38;;;;;;;9.05;5.72;;;9.60;93.30;;;;;;5036658;28;20043;-65
2024/03/31 06:23:04;;;;;;;10.25;6.78;;;9.70;93.30;;;;;;5017497;28;20014;-65
2024/03/31 06:25:30;;;;;;;9.55;6.57;;;9.70;93.50;;;;;;5034055;28;20745;-64
2024/03/31 06:27:55;;;;;;;8.50;6.10;;;9.70;93.80;;;;;;5031001;28;20049;-65
2024/03/31 06:30:21;;;;;;;10.77;7.35;;;9.70;93.70;;;;;;5037805;28;20025;-64
2024/03/31 06:32:46;;;;;;;11.70;7.28;;;9.70;93.80;;;;;;5036583;28;20029;-65
2024/03/31 06:35:12;;;;;;;12.60;7.15;;;9.80;93.70;;;;;;5033094;28;20036;-65
2024/03/31 06:37:38;;;;;;;12.23;7.50;;;9.80;93.90;;;;;;5033789;28;20095;-65
2024/03/31 06:40:04;;;;;;;12.38;8.00;;;9.80;93.80;;;;;;5031937;28;20025;-64
2024/03/31 06:42:30;;;;;;;9.77;6.68;;;9.90;93.80;;;;;;5024350;28;20047;-64
2024/03/31 06:44:55;;;;;;;11.07;7.40;;;9.90;93.70;;;;;;5036274;28;20025;-66
2024/03/31 06:47:21;;;;;;;12.90;8.80;;;9.90;93.90;;;;;;5026261;28;20026;-65
2024/03/31 06:49:47;;;;;;;10.20;6.82;;;9.90;93.90;;;;;;5029261;28;20028;-65
2024/03/31 06:52:12;;;;;;;9.98;6.65;;;10.00;94.00;;;;;;5034127;28;20029;-65
2024/03/31 06:54:38;;;;;;;10.73;7.07;;;10.00;93.90;;;;;;5040491;28;20060;-65
2024/03/31 06:57:04;;;;;;;9.95;6.68;;;10.00;94.00;;;;;;5034379;28;20037;-65
2024/03/31 06:59:30;;;;;;;8.63;6.07;;;10.20;93.90;;;;;;5032395;28;20116;-65
2024/03/31 07:01:55;;;;;;;10.70;6.95;;;10.30;93.90;;;;;;5027396;28;20025;-66
2024/03/31 07:04:21;;;;;;;10.02;6.78;;;10.30;93.90;;;;;;5031040;28;20029;-65
2024/03/31 07:06:46;;;;;;;10.48;6.80;;;10.30;93.80;;;;;;5030207;28;20018;-65
2024/03/31 07:09:12;;;;;;;9.10;5.97;;;10.30;93.90;;;;;;5037766;28;20063;-65
2024/03/31 07:11:37;;;;;;;8.60;5.78;;;10.30;93.80;;;;;;5038155;28;20361;-65
2024/03/31 07:14:03;;;;;;;9.70;6.40;;;10.20;93.80;;;;;;5038962;28;20440;-65
2024/03/31 07:16:28;;;;;;;10.20;6.75;;;10.30;93.80;;;;;;5036839;28;20033;-66
2024/03/31 07:18:54;;;;;;;9.45;6.30;;;10.30;93.80;;;;;;5044411;28;20021;-65
2024/03/31 07:21:19;;;;;;;9.65;6.18;;;10.20;93.90;;;;;;5024247;28;20034;-65
2024/03/31 07:23:45;;;;;;;10.43;6.63;;;10.30;93.90;;;;;;5033397;28;20022;-66
2024/03/31 07:26:12;;;;;;;12.35;8.10;;;10.40;94.10;;;;;;5034113;28;20017;-65
2024/03/31 07:28:38;;;;;;;11.98;8.30;;;10.30;94.00;;;;;;5036053;28;20052;-65
2024/03/31 07:31:03;;;;;;;13.27;9.05;;;10.20;94.10;;;;;;5029871;28;20048;-66
2024/03/31 07:33:29;;;;;;;11.07;7.57;;;10.20;94.50;;;;;;5029965;28;20029;-65
2024/03/31 07:35:54;;;;;;;11.95;8.18;;;10.20;94.40;;;;;;5033354;28;20026;-65
2024/03/31 07:38:20;;;;;;;12.38;8.73;;;10.20;94.50;;;;;;5035767;28;20068;-66
2024/03/31 07:40:46;;;;;;;12.30;8.20;;;10.20;94.50;;;;;;5028882;28;20030;-66
2024/03/31 07:43:11;;;;;;;11.65;8.27;;;10.20;94.60;;;;;;5022136;28;20032;-66
2024/03/31 07:45:37;;;;;;;12.82;8.80;;;10.20;94.80;;;;;;5028073;28;20025;-65
2024/03/31 07:48:03;;;;;;;12.02;8.68;;;10.20;94.90;;;;;;5030031;28;20044;-66
2024/03/31 07:50:28;;;;;;;10.32;7.22;;;10.30;94.90;;;;;;5031559;28;20029;-64
2024/03/31 07:52:54;;;;;;;9.93;6.95;;;10.40;94.80;;;;;;5041871;28;20033;-66
2024/03/31 07:55:19;;;;;;;11.90;8.40;;;10.60;94.90;;;;;;5042473;28;20099;-66
2024/03/31 07:57:45;;;;;;;10.90;7.63;;;10.70;94.80;;;;;;5031110;28;20033;-65
2024/03/31 08:00:11;;;;;;;10.73;7.28;;;11.00;94.50;;;;;;5035824;28;20033;-66
2024/03/31 08:02:36;;;;;;;9.80;7.15;;;11.10;94.00;;;;;;5023961;28;20026;-65
2024/03/31 08:05:02;;;;;;;9.48;6.53;;;11.30;93.80;;;;;;5026665;28;20029;-65
2024/03/31 08:07:27;;;;;;;9.43;6.95;;;11.30;93.60;;;;;;5027982;28;20034;-66
2024/03/31 08:09:53;;;;;;;11.50;8.38;;;11.40;93.50;;;;;;5031690;28;20021;-65
2024/03/31 08:12:18;;;;;;;10.50;7.25;;;11.30;93.40;;;;;;5035926;28;20039;-66
2024/03/31 08:14:44;;;;;;;11.57;7.30;;;11.30;93.50;;;;;;5034542;28;20021;-66
2024/03/31 08:17:10;;;;;;;9.00;6.75;;;11.30;93.50;;;;;;5026013;28;20109;-64
2024/03/31 08:19:35;;;;;;;10.02;6.90;;;11.40;93.60;;;;;;5032522;28;20132;-65
2024/03/31 08:22:01;;;;;;;12.30;8.05;;;11.60;93.80;;;;;;5031046;28;20071;-66
2024/03/31 08:24:26;;;;;;;10.63;7.45;;;11.70;93.30;;;;;;5022524;28;20025;-63
2024/03/31 08:26:52;;;;;;;10.00;6.65;;;11.90;93.20;;;;;;5034676;28;20025;-62
2024/03/31 08:29:20;;;;;;;11.65;7.28;;;12.10;93.20;;;;;;5042604;28;20083;-66
2024/03/31 08:31:48;;;;;;;9.55;6.68;;;12.20;92.70;;;;;;5029163;28;20033;-66
2024/03/31 08:34:14;;;;;;;12.13;8.02;;;12.20;92.50;;;;;;5024287;28;20498;-66
2024/03/31 08:36:39;;;;;;;9.32;6.63;;;12.20;92.50;;;;;;5027613;28;20041;-65
2024/03/31 08:39:09;;;;;;;9.63;6.72;;;12.30;92.50;;;;;;5033082;28;20032;-65
2024/03/31 08:41:58;;;;;;;9.85;6.97;;;12.30;92.50;;;;;;5025741;28;20064;-65
2024/03/31 08:44:23;;;;;;;10.38;6.80;;;12.20;92.50;;;;;;5015251;28;20066;-65
2024/03/31 08:46:49;;;;;;;8.63;6.15;;;12.10;92.40;;;;;;5028931;28;20451;-66
2024/03/31 08:49:15;;;;;;;10.85;7.47;;;12.10;92.60;;;;;;5029499;28;20029;-66
2024/03/31 08:51:41;;;;;;;9.75;6.20;;;12.00;92.70;;;;;;5030553;28;20022;-66
2024/03/31 08:54:07;;;;;;;7.85;5.28;;;12.20;92.90;;;;;;5027612;28;20618;-65
2024/03/31 08:56:33;;;;;;;7.05;4.70;;;12.40;92.70;;;;;;5028902;28;20029;-66
2024/03/31 08:59:00;;;;;;;9.05;6.05;;;12.70;92.40;;;;;;5028847;28;20067;-66
2024/03/31 09:01:27;;;;;;;9.38;5.30;;;12.80;92.10;;;;;;5020520;28;20281;-67
2024/03/31 09:03:53;;;;;;;9.45;6.28;;;12.80;91.90;;;;;;5025887;28;20108;-66
2024/03/31 09:06:18;;;;;;;7.00;4.88;;;12.80;91.80;;;;;;5030892;28;20017;-66
2024/03/31 09:08:44;;;;;;;10.52;6.90;;;12.80;92.00;;;;;;5027716;28;20098;-65
2024/03/31 09:11:10;;;;;;;10.50;6.68;;;12.60;91.90;;;;;;5027006;28;20360;-66
2024/03/31 09:13:35;;;;;;;8.68;5.88;;;12.50;92.10;;;;;;5027617;28;20405;-66
2024/03/31 09:16:02;;;;;;;7.80;5.30;;;12.50;92.20;;;;;;5032361;28;20022;-66
2024/03/31 09:18:28;;;;;;;9.30;6.03;;;12.60;92.20;;;;;;5030979;28;20172;-65
2024/03/31 09:20:54;;;;;;;7.38;4.88;;;12.60;92.20;;;;;;5024463;28;20141;-66
2024/03/31 09:23:19;;;;;;;7.05;4.78;;;12.80;92.20;;;;;;5027672;28;20018;-65
2024/03/31 09:25:45;;;;;;;6.45;4.10;;;12.90;92.10;;;;;;5027704;28;20025;-65
2024/03/31 09:28:11;;;;;;;7.78;5.07;;;13.10;92.00;;;;;;5032051;28;20022;-65
2024/03/31 09:30:39;;;;;;;5.43;4.10;;;13.30;91.70;;;;;;5031446;28;20484;-67
2024/03/31 09:33:05;;;;;;;6.78;4.72;;;13.50;91.60;;;;;;5028749;28;20103;-65
2024/03/31 09:35:32;;;;;;;7.68;4.97;;;13.70;91.30;;;;;;5028377;28;20116;-65
2024/03/31 09:37:58;;;;;;;6.90;4.88;;;13.70;91.00;;;;;;5022895;28;20029;-66
2024/03/31 09:40:25;;;;;;;7.88;5.35;;;13.70;90.90;;;;;;5025920;28;20631;-66
2024/03/31 09:42:51;;;;;;;10.10;6.63;;;13.80;90.90;;;;;;5021332;28;20026;-66
2024/03/31 09:45:17;;;;;;;10.15;6.10;;;13.70;90.90;;;;;;5021750;28;20026;-65
2024/03/31 09:47:48;;;;;;;11.15;6.32;;;13.70;90.90;;;;;;5025124;28;20056;-65
2024/03/31 09:50:17;;;;;;;8.90;5.60;;;13.70;90.80;;;;;;5024033;28;20440;-65
2024/03/31 09:52:46;;;;;;;9.55;6.30;;;13.90;90.80;;;;;;5021482;28;20371;-65
2024/03/31 09:55:14;;;;;;;7.60;4.78;;;13.90;90.70;;;;;;5021744;28;20026;-65
2024/03/31 09:57:47;;;;;;;9.68;6.38;;;14.10;90.60;;;;;;5025006;28;20026;-66
2024/03/31 10:00:14;;;;;;;12.30;7.07;;;14.30;90.40;;;;;;5025789;28;20060;-66
2024/03/31 10:02:52;;;;;;;9.50;6.80;;;14.30;90.30;;;;;;5025801;28;20496;-65
2024/03/31 10:05:42;;;;;;;9.45;6.07;;;14.30;90.00;;;;;;5030780;28;20025;-65
2024/03/31 10:08:08;;;;;;;8.20;5.13;;;14.40;90.10;;;;;;5019551;28;20419;-66
2024/03/31 10:10:38;;;;;;;9.98;6.35;;;14.60;89.90;;;;;;5032285;28;20307;-65
2024/03/31 10:13:05;;;;;;;10.18;7.05;;;14.60;89.70;;;;;;5023734;28;20150;-65
2024/03/31 10:15:32;;;;;;;7.90;4.97;;;14.50;89.10;;;;;;5026717;28;20606;-65
2024/03/31 10:17:59;;;;;;;10.57;6.68;;;14.60;89.40;;;;;;5030743;28;20472;-66
2024/03/31 10:20:26;;;;;;;12.55;7.07;;;14.70;88.80;;;;;;5028240;28;20032;-66
2024/03/31 10:22:53;;;;;;;8.50;6.40;;;14.70;89.10;;;;;;5029461;28;20053;-65
2024/03/31 10:25:20;;;;;;;11.75;7.13;;;14.80;88.90;;;;;;5028608;28;20028;-66
2024/03/31 10:27:50;;;;;;;8.68;5.05;;;14.70;88.60;;;;;;5027241;28;20127;-66
2024/03/31 10:30:16;;;;;;;7.15;5.25;;;14.90;88.90;;;;;;5029147;28;20029;-66
2024/03/31 10:32:42;;;;;;;7.47;6.05;;;14.80;88.50;;;;;;5022027;28;20033;-65
2024/03/31 10:35:08;;;;;;;7.10;4.60;;;14.90;88.30;;;;;;5033032;28;20068;-65
2024/03/31 10:37:34;;;;;;;7.75;5.13;;;15.00;88.70;;;;;;5033193;28;20083;-66
2024/03/31 10:40:04;;;;;;;6.20;4.85;;;15.00;88.20;;;;;;5030663;28;20021;-65
2024/03/31 10:42:30;;;;;;;6.40;4.70;;;15.10;88.20;;;;;;5027466;28;20469;-66
2024/03/31 10:44:56;;;;;;;6.80;4.50;;;15.20;87.90;;;;;;5026259;28;20030;-66
2024/03/31 10:47:22;;;;;;;7.65;4.38;;;15.30;87.70;;;;;;5028566;28;20454;-66
2024/03/31 10:49:59;;;;;;;6.93;4.22;;;15.30;87.50;;;;;;5026912;28;20029;-66
2024/03/31 10:52:27;;;;;;;6.03;3.40;;;15.40;87.30;;;;;;5022364;28;20075;-66
2024/03/31 10:54:54;;;;;;;5.18;3.67;;;15.60;87.20;;;;;;5033641;28;20032;-66
2024/03/31 10:57:20;;;;;;;7.80;4.53;;;15.80;86.60;;;;;;5028921;28;20033;-66
2024/03/31 10:59:45;;;;;;;6.85;4.55;;;15.80;86.00;;;;;;5034848;28;20036;-66
2024/03/31 11:02:14;;;;;;;7.53;4.10;;;15.90;85.90;;;;;;5027779;28;20057;-66
2024/03/31 11:04:41;;;;;;;8.38;4.40;;;15.90;85.80;;;;;;5025800;28;20033;-66
2024/03/31 11:07:10;;;;;;;8.85;4.30;;;16.00;85.50;;;;;;5029241;28;20017;-66
2024/03/31 11:09:40;;;;;;;6.82;4.00;;;16.00;85.60;;;;;;5031265;28;20067;-66
2024/03/31 11:12:07;;;;;;;6.10;4.05;;;16.00;85.10;;;;;;5028758;28;20088;-66
2024/03/31 11:14:33;;;;;;;6.85;4.03;;;16.10;84.80;;;;;;5028039;28;20033;-65
2024/03/31 11:17:00;;;;;;;6.55;4.15;;;16.10;83.90;;;;;;5029212;28;20038;-66
2024/03/31 11:19:27;;;;;;;6.47;3.42;;;16.00;84.00;;;;;;5029173;28;20577;-67
2024/03/31 11:21:57;;;;;;;4.40;3.15;;;16.00;84.60;;;;;;5030302;28;20022;-65
2024/03/31 11:24:24;;;;;;;6.30;3.27;;;16.10;84.80;;;;;;5026030;28;20037;-66
2024/03/31 11:26:51;;;;;;;6.35;2.67;;;16.20;84.60;;;;;;5027327;28;20022;-66
2024/03/31 11:29:17;;;;;;;4.68;2.70;;;16.30;84.40;;;;;;5029259;28;20029;-66
2024/03/31 11:31:44;;;;;;;4.03;2.58;;;16.50;84.00;;;;;;5028353;28;20029;-66
2024/03/31 11:34:10;;;;;;;5.30;2.90;;;16.50;83.90;;;;;;5032554;28;20112;-66
2024/03/31 11:36:36;;;;;;;4.55;2.78;;;16.60;83.70;;;;;;5020252;28;20045;-66
2024/03/31 11:39:02;;;;;;;6.53;2.90;;;16.70;83.30;;;;;;5022835;28;20032;-66
2024/03/31 11:41:27;;;;;;;6.28;3.38;;;16.80;83.00;;;;;;5024976;28;20029;-66
2024/03/31 11:43:53;;;;;;;8.25;4.40;;;16.70;81.30;;;;;;5025791;28;20037;-65
2024/03/31 11:46:19;;;;;;;5.32;3.10;;;16.60;81.80;;;;;;5024041;28;20017;-66
2024/03/31 11:48:45;;;;;;;8.50;3.05;;;16.70;82.40;;;;;;5028152;28;20026;-66
2024/03/31 11:51:11;;;;;;;6.20;3.17;;;16.80;82.30;;;;;;5024949;28;20026;-66
2024/03/31 11:53:37;;;;;;;7.57;3.90;;;16.90;82.30;;;;;;5026918;28;20148;-65
2024/03/31 11:56:06;;;;;;;6.10;3.35;;;17.00;80.10;;;;;;5026717;28;20112;-65
2024/03/31 11:58:36;;;;;;;4.82;2.50;;;16.90;81.00;;;;;;5027390;28;20040;-66
2024/03/31 12:01:02;;;;;;;6.05;2.88;;;17.00;80.50;;;;;;5021858;28;20036;-66
2024/03/31 12:03:27;;;;;;;4.90;2.00;;;17.00;80.60;;;;;;5027709;28;20033;-67
2024/03/31 12:05:53;;;;;;;6.20;2.80;;;17.20;80.20;;;;;;5025066;28;20028;-67
2024/03/31 12:08:19;;;;;;;3.45;2.30;;;17.20;79.00;;;;;;5025663;28;20032;-66
2024/03/31 12:10:46;;;;;;;5.15;2.55;;;17.30;79.60;;;;;;5028404;28;20068;-66
2024/03/31 12:13:15;;;;;;;3.85;2.20;;;17.30;79.30;;;;;;5027815;28;20021;-66
2024/03/31 12:15:41;;;;;;;5.35;2.33;;;17.20;79.00;;;;;;5026190;28;20030;-66
2024/03/31 12:18:09;;;;;;;7.55;2.75;;;17.20;78.70;;;;;;5020131;28;20275;-66
2024/03/31 12:20:35;;;;;;;4.18;2.22;;;17.20;79.20;;;;;;5027011;28;20661;-66
2024/03/31 12:23:02;;;;;;;4.28;2.03;;;17.20;78.70;;;;;;5025573;28;20036;-66
2024/03/31 12:25:28;;;;;;;4.50;1.88;;;17.30;78.60;;;;;;5022633;28;20034;-66
2024/03/31 12:27:54;;;;;;;3.70;1.60;;;17.40;77.90;;;;;;5026736;28;20384;-66
2024/03/31 12:30:20;;;;;;;4.13;1.60;;;17.60;77.20;;;;;;5021230;28;20031;-69
2024/03/31 12:32:46;;;;;;;2.65;1.40;;;17.60;76.90;;;;;;5022574;28;20760;-67
2024/03/31 12:35:11;;;;;;;2.75;1.50;;;17.70;76.90;;;;;;5024580;28;20296;-67
2024/03/31 12:37:37;;;;;;;4.57;1.70;;;17.80;75.50;;;;;;5025166;28;20040;-67
2024/03/31 12:40:06;;;;;;;4.50;1.75;;;17.70;75.90;;;;;;5025042;28;20040;-67
2024/03/31 12:42:37;;;;;;;4.95;1.80;;;17.80;76.50;;;;;;5024016;28;20052;-67